sensor_id;sensor_type;location;lat;lon;timestamp;pressure;altitude;pressure_sealevel;temperature
67509;BMP280;54354;44.724;11.284;2024-01-30T00:01:19;103662.97;;;8.72
67509;BMP280;54354;44.724;11.284;2024-01-30T00:03:45;103677.59;;;8.69
67509;BMP280;54354;44.724;11.284;2024-01-30T00:06:11;103659.91;;;8.61
67509;BMP280;54354;44.724;11.284;2024-01-30T00:08:37;103672.03;;;8.62
67509;BMP280;54354;44.724;11.284;2024-01-30T00:11:03;103661.19;;;8.55
67509;BMP280;54354;44.724;11.284;2024-01-30T00:13:29;103663.19;;;8.49
67509;BMP280;54354;44.724;11.284;2024-01-30T00:15:54;103665.41;;;8.47
67509;BMP280;54354;44.724;11.284;2024-01-30T00:18:20;103665.72;;;8.46
67509;BMP280;54354;44.724;11.284;2024-01-30T00:20:46;103652.81;;;8.44
67509;BMP280;54354;44.724;11.284;2024-01-30T00:23:12;103665.06;;;8.49
67509;BMP280;54354;44.724;11.284;2024-01-30T00:25:38;103671.41;;;8.48
67509;BMP280;54354;44.724;11.284;2024-01-30T00:28:03;103666.91;;;8.48
67509;BMP280;54354;44.724;11.284;2024-01-30T00:30:29;103664.91;;;8.45
67509;BMP280;54354;44.724;11.284;2024-01-30T00:32:54;103661.81;;;8.43
67509;BMP280;54354;44.724;11.284;2024-01-30T00:35:20;103656.38;;;8.40
67509;BMP280;54354;44.724;11.284;2024-01-30T00:37:47;103655.75;;;8.43
67509;BMP280;54354;44.724;11.284;2024-01-30T00:40:13;103648.63;;;8.43
67509;BMP280;54354;44.724;11.284;2024-01-30T00:42:44;103651.88;;;8.40
67509;BMP280;54354;44.724;11.284;2024-01-30T00:45:16;103654.97;;;8.42
67509;BMP280;54354;44.724;11.284;2024-01-30T00:47:42;103651.41;;;8.47
67509;BMP280;54354;44.724;11.284;2024-01-30T00:50:08;103657.78;;;8.46
67509;BMP280;54354;44.724;11.284;2024-01-30T00:52:34;103659.34;;;8.47
67509;BMP280;54354;44.724;11.284;2024-01-30T00:55:01;103666.63;;;8.41
67509;BMP280;54354;44.724;11.284;2024-01-30T00:57:26;103659.22;;;8.34
67509;BMP280;54354;44.724;11.284;2024-01-30T00:59:52;103662.94;;;8.25
67509;BMP280;54354;44.724;11.284;2024-01-30T01:02:18;103657.19;;;8.23
67509;BMP280;54354;44.724;11.284;2024-01-30T01:04:44;103657.66;;;8.25
67509;BMP280;54354;44.724;11.284;2024-01-30T01:07:10;103652.53;;;8.20
67509;BMP280;54354;44.724;11.284;2024-01-30T01:09:36;103656.72;;;8.21
67509;BMP280;54354;44.724;11.284;2024-01-30T01:12:02;103659.69;;;8.19
67509;BMP280;54354;44.724;11.284;2024-01-30T01:14:28;103663.09;;;8.20
67509;BMP280;54354;44.724;11.284;2024-01-30T01:16:54;103657.81;;;8.20
67509;BMP280;54354;44.724;11.284;2024-01-30T01:19:19;103664.63;;;8.21
67509;BMP280;54354;44.724;11.284;2024-01-30T01:21:45;103657.66;;;8.16
67509;BMP280;54354;44.724;11.284;2024-01-30T01:24:10;103663.72;;;8.17
67509;BMP280;54354;44.724;11.284;2024-01-30T01:26:36;103659.22;;;8.26
67509;BMP280;54354;44.724;11.284;2024-01-30T01:29:01;103667.28;;;8.29
67509;BMP280;54354;44.724;11.284;2024-01-30T01:31:29;103664.34;;;8.31
67509;BMP280;54354;44.724;11.284;2024-01-30T01:33:55;103653.78;;;8.31
67509;BMP280;54354;44.724;11.284;2024-01-30T01:36:20;103662.91;;;8.33
67509;BMP280;54354;44.724;11.284;2024-01-30T01:38:46;103649.72;;;8.33
67509;BMP280;54354;44.724;11.284;2024-01-30T01:41:12;103656.25;;;8.36
67509;BMP280;54354;44.724;11.284;2024-01-30T01:43:37;103654.06;;;8.38
67509;BMP280;54354;44.724;11.284;2024-01-30T01:46:05;103643.03;;;8.36
67509;BMP280;54354;44.724;11.284;2024-01-30T01:48:32;103644.72;;;8.41
67509;BMP280;54354;44.724;11.284;2024-01-30T01:50:58;103650.78;;;8.41
67509;BMP280;54354;44.724;11.284;2024-01-30T01:53:24;103653.91;;;8.43
67509;BMP280;54354;44.724;11.284;2024-01-30T01:55:50;103648.31;;;8.45
67509;BMP280;54354;44.724;11.284;2024-01-30T01:58:19;103648.66;;;8.34
67509;BMP280;54354;44.724;11.284;2024-01-30T02:00:45;103650.94;;;8.27
67509;BMP280;54354;44.724;11.284;2024-01-30T02:03:13;103645.38;;;8.20
67509;BMP280;54354;44.724;11.284;2024-01-30T02:05:40;103642.59;;;8.25
67509;BMP280;54354;44.724;11.284;2024-01-30T02:08:08;103644.47;;;8.25
67509;BMP280;54354;44.724;11.284;2024-01-30T02:10:33;103643.22;;;8.31
67509;BMP280;54354;44.724;11.284;2024-01-30T02:12:59;103643.97;;;8.31
67509;BMP280;54354;44.724;11.284;2024-01-30T02:15:25;103639.16;;;8.33
67509;BMP280;54354;44.724;11.284;2024-01-30T02:17:50;103643.38;;;8.34
67509;BMP280;54354;44.724;11.284;2024-01-30T02:20:16;103646.28;;;8.33
67509;BMP280;54354;44.724;11.284;2024-01-30T02:22:42;103642.41;;;8.30
67509;BMP280;54354;44.724;11.284;2024-01-30T02:25:08;103636.34;;;8.30
67509;BMP280;54354;44.724;11.284;2024-01-30T02:27:34;103641.63;;;8.30
67509;BMP280;54354;44.724;11.284;2024-01-30T02:29:59;103629.41;;;8.25
67509;BMP280;54354;44.724;11.284;2024-01-30T02:32:25;103631.28;;;8.25
67509;BMP280;54354;44.724;11.284;2024-01-30T02:34:50;103632.34;;;8.24
67509;BMP280;54354;44.724;11.284;2024-01-30T02:37:16;103628.94;;;8.23
67509;BMP280;54354;44.724;11.284;2024-01-30T02:39:42;103633.13;;;8.24
67509;BMP280;54354;44.724;11.284;2024-01-30T02:42:07;103636.38;;;8.21
67509;BMP280;54354;44.724;11.284;2024-01-30T02:44:33;103646.31;;;8.24
67509;BMP280;54354;44.724;11.284;2024-01-30T02:46:58;103632.34;;;8.24
67509;BMP280;54354;44.724;11.284;2024-01-30T02:49:24;103634.50;;;8.22
67509;BMP280;54354;44.724;11.284;2024-01-30T02:51:50;103628.63;;;8.25
67509;BMP280;54354;44.724;11.284;2024-01-30T02:54:16;103629.22;;;8.22
67509;BMP280;54354;44.724;11.284;2024-01-30T02:56:41;103639.50;;;8.23
67509;BMP280;54354;44.724;11.284;2024-01-30T02:59:07;103622.56;;;8.16
67509;BMP280;54354;44.724;11.284;2024-01-30T03:01:32;103623.97;;;8.13
67509;BMP280;54354;44.724;11.284;2024-01-30T03:03:58;103621.97;;;8.01
67509;BMP280;54354;44.724;11.284;2024-01-30T03:06:23;103628.31;;;7.92
67509;BMP280;54354;44.724;11.284;2024-01-30T03:08:49;103622.09;;;7.87
67509;BMP280;54354;44.724;11.284;2024-01-30T03:11:15;103623.66;;;7.88
67509;BMP280;54354;44.724;11.284;2024-01-30T03:13:41;103612.66;;;7.95
67509;BMP280;54354;44.724;11.284;2024-01-30T03:16:08;103610.16;;;7.99
67509;BMP280;54354;44.724;11.284;2024-01-30T03:18:34;103611.41;;;8.01
67509;BMP280;54354;44.724;11.284;2024-01-30T03:20:59;103610.63;;;8.01
67509;BMP280;54354;44.724;11.284;2024-01-30T03:23:25;103607.53;;;7.99
67509;BMP280;54354;44.724;11.284;2024-01-30T03:25:50;103609.38;;;7.98
67509;BMP280;54354;44.724;11.284;2024-01-30T03:28:16;103611.09;;;8.03
67509;BMP280;54354;44.724;11.284;2024-01-30T03:30:41;103616.97;;;8.08
67509;BMP280;54354;44.724;11.284;2024-01-30T03:33:07;103610.31;;;8.11
67509;BMP280;54354;44.724;11.284;2024-01-30T03:35:32;103611.06;;;8.11
67509;BMP280;54354;44.724;11.284;2024-01-30T03:37:57;103614.19;;;8.14
67509;BMP280;54354;44.724;11.284;2024-01-30T03:40:23;103613.09;;;8.15
67509;BMP280;54354;44.724;11.284;2024-01-30T03:42:49;103617.75;;;8.09
67509;BMP280;54354;44.724;11.284;2024-01-30T03:45:14;103614.81;;;8.02
67509;BMP280;54354;44.724;11.284;2024-01-30T03:47:43;103609.84;;;8.00
67509;BMP280;54354;44.724;11.284;2024-01-30T03:50:09;103621.00;;;8.06
67509;BMP280;54354;44.724;11.284;2024-01-30T03:52:34;103610.94;;;8.08
67509;BMP280;54354;44.724;11.284;2024-01-30T03:55:00;103615.25;;;8.12
67509;BMP280;54354;44.724;11.284;2024-01-30T03:57:25;103616.84;;;8.14
67509;BMP280;54354;44.724;11.284;2024-01-30T03:59:51;103604.69;;;8.12
67509;BMP280;54354;44.724;11.284;2024-01-30T04:02:16;103607.50;;;8.16
67509;BMP280;54354;44.724;11.284;2024-01-30T04:04:43;103614.97;;;8.14
67509;BMP280;54354;44.724;11.284;2024-01-30T04:07:08;103613.09;;;8.15
67509;BMP280;54354;44.724;11.284;2024-01-30T04:09:34;103608.44;;;8.11
67509;BMP280;54354;44.724;11.284;2024-01-30T04:11:59;103604.25;;;8.10
67509;BMP280;54354;44.724;11.284;2024-01-30T04:14:25;103602.22;;;8.07
67509;BMP280;54354;44.724;11.284;2024-01-30T04:16:50;103602.69;;;8.09
67509;BMP280;54354;44.724;11.284;2024-01-30T04:19:16;103601.63;;;8.10
67509;BMP280;54354;44.724;11.284;2024-01-30T04:21:41;103608.91;;;8.14
67509;BMP280;54354;44.724;11.284;2024-01-30T04:24:07;103605.50;;;8.13
67509;BMP280;54354;44.724;11.284;2024-01-30T04:26:33;103601.63;;;8.10
67509;BMP280;54354;44.724;11.284;2024-01-30T04:28:58;103599.91;;;8.15
67509;BMP280;54354;44.724;11.284;2024-01-30T04:31:23;103601.91;;;8.18
67509;BMP280;54354;44.724;11.284;2024-01-30T04:33:49;103600.19;;;8.22
67509;BMP280;54354;44.724;11.284;2024-01-30T04:36:14;103605.63;;;8.25
67509;BMP280;54354;44.724;11.284;2024-01-30T04:38:40;103598.50;;;8.26
67509;BMP280;54354;44.724;11.284;2024-01-30T04:41:05;103590.22;;;8.27
67509;BMP280;54354;44.724;11.284;2024-01-30T04:43:31;103604.38;;;8.31
67509;BMP280;54354;44.724;11.284;2024-01-30T04:45:56;103599.88;;;8.32
67509;BMP280;54354;44.724;11.284;2024-01-30T04:48:22;103608.72;;;8.36
67509;BMP280;54354;44.724;11.284;2024-01-30T04:50:47;103599.84;;;8.41
67509;BMP280;54354;44.724;11.284;2024-01-30T04:53:13;103602.47;;;8.41
67509;BMP280;54354;44.724;11.284;2024-01-30T04:55:38;103602.34;;;8.37
67509;BMP280;54354;44.724;11.284;2024-01-30T04:58:04;103604.19;;;8.36
67509;BMP280;54354;44.724;11.284;2024-01-30T05:00:29;103603.09;;;8.37
67509;BMP280;54354;44.724;11.284;2024-01-30T05:02:55;103603.09;;;8.37
67509;BMP280;54354;44.724;11.284;2024-01-30T05:05:21;103609.47;;;8.36
67509;BMP280;54354;44.724;11.284;2024-01-30T05:07:47;103606.84;;;8.36
67509;BMP280;54354;44.724;11.284;2024-01-30T05:10:13;103610.56;;;8.35
67509;BMP280;54354;44.724;11.284;2024-01-30T05:12:39;103615.72;;;8.32
67509;BMP280;54354;44.724;11.284;2024-01-30T05:15:05;103620.22;;;8.31
67509;BMP280;54354;44.724;11.284;2024-01-30T05:17:30;103614.94;;;8.31
67509;BMP280;54354;44.724;11.284;2024-01-30T05:19:56;103617.41;;;8.36
67509;BMP280;54354;44.724;11.284;2024-01-30T05:22:21;103621.13;;;8.35
67509;BMP280;54354;44.724;11.284;2024-01-30T05:24:47;103624.88;;;8.34
67509;BMP280;54354;44.724;11.284;2024-01-30T05:27:12;103620.97;;;8.32
67509;BMP280;54354;44.724;11.284;2024-01-30T05:29:41;103624.41;;;8.32
67509;BMP280;54354;44.724;11.284;2024-01-30T05:32:06;103627.50;;;8.34
67509;BMP280;54354;44.724;11.284;2024-01-30T05:34:32;103624.41;;;8.32
67509;BMP280;54354;44.724;11.284;2024-01-30T05:36:58;103622.84;;;8.31
67509;BMP280;54354;44.724;11.284;2024-01-30T05:39:23;103622.09;;;8.31
67509;BMP280;54354;44.724;11.284;2024-01-30T05:41:49;103623.47;;;8.28
67509;BMP280;54354;44.724;11.284;2024-01-30T05:44:14;103618.34;;;8.32
67509;BMP280;54354;44.724;11.284;2024-01-30T05:46:40;103618.97;;;8.29
67509;BMP280;54354;44.724;11.284;2024-01-30T05:49:05;103624.41;;;8.32
67509;BMP280;54354;44.724;11.284;2024-01-30T05:51:31;103623.63;;;8.32
67509;BMP280;54354;44.724;11.284;2024-01-30T05:53:56;103629.69;;;8.32
67509;BMP280;54354;44.724;11.284;2024-01-30T05:56:22;103624.41;;;8.32
67509;BMP280;54354;44.724;11.284;2024-01-30T05:58:48;103630.63;;;8.28
67509;BMP280;54354;44.724;11.284;2024-01-30T06:01:15;103630.91;;;8.26
67509;BMP280;54354;44.724;11.284;2024-01-30T06:03:41;103639.97;;;8.25
67509;BMP280;54354;44.724;11.284;2024-01-30T06:06:08;103625.81;;;8.21
67509;BMP280;54354;44.724;11.284;2024-01-30T06:08:34;103641.84;;;8.25
67509;BMP280;54354;44.724;11.284;2024-01-30T06:10:59;103627.19;;;8.27
67509;BMP280;54354;44.724;11.284;2024-01-30T06:13:26;103639.31;;;8.28
67509;BMP280;54354;44.724;11.284;2024-01-30T06:15:51;103631.69;;;8.27
67509;BMP280;54354;44.724;11.284;2024-01-30T06:18:17;103627.84;;;8.24
67509;BMP280;54354;44.724;11.284;2024-01-30T06:20:42;103631.25;;;8.16
67509;BMP280;54354;44.724;11.284;2024-01-30T06:23:08;103637.63;;;8.15
67509;BMP280;54354;44.724;11.284;2024-01-30T06:25:34;103639.34;;;8.11
67509;BMP280;54354;44.724;11.284;2024-01-30T06:27:59;103640.88;;;8.12
67509;BMP280;54354;44.724;11.284;2024-01-30T06:30:25;103652.38;;;8.16
67509;BMP280;54354;44.724;11.284;2024-01-30T06:32:50;103650.19;;;8.18
67509;BMP280;54354;44.724;11.284;2024-01-30T06:35:16;103645.69;;;8.19
67509;BMP280;54354;44.724;11.284;2024-01-30T06:37:43;103652.22;;;8.12
67509;BMP280;54354;44.724;11.284;2024-01-30T06:40:08;103646.50;;;8.10
67509;BMP280;54354;44.724;11.284;2024-01-30T06:42:34;103648.81;;;8.12
67509;BMP280;54354;44.724;11.284;2024-01-30T06:45:00;103661.56;;;8.10
67509;BMP280;54354;44.724;11.284;2024-01-30T06:47:25;103657.34;;;8.09
67509;BMP280;54354;44.724;11.284;2024-01-30T06:49:51;103662.63;;;8.09
67509;BMP280;54354;44.724;11.284;2024-01-30T06:52:16;103657.19;;;8.05
67509;BMP280;54354;44.724;11.284;2024-01-30T06:54:42;103655.47;;;8.01
67509;BMP280;54354;44.724;11.284;2024-01-30T06:57:07;103663.09;;;8.02
67509;BMP280;54354;44.724;11.284;2024-01-30T06:59:37;103657.66;;;8.07
67509;BMP280;54354;44.724;11.284;2024-01-30T07:02:02;103654.53;;;8.05
67509;BMP280;54354;44.724;11.284;2024-01-30T07:04:28;103666.53;;;8.03
67509;BMP280;54354;44.724;11.284;2024-01-30T07:06:54;103658.44;;;7.99
67509;BMP280;54354;44.724;11.284;2024-01-30T07:09:19;103666.34;;;7.99
67509;BMP280;54354;44.724;11.284;2024-01-30T07:11:45;103676.16;;;7.99
67509;BMP280;54354;44.724;11.284;2024-01-30T07:14:11;103675.53;;;7.93
67509;BMP280;54354;44.724;11.284;2024-01-30T07:16:36;103657.50;;;7.86
67509;BMP280;54354;44.724;11.284;2024-01-30T07:19:02;103676.91;;;7.91
67509;BMP280;54354;44.724;11.284;2024-01-30T07:21:28;103669.00;;;7.91
67509;BMP280;54354;44.724;11.284;2024-01-30T07:23:54;103675.38;;;7.98
67509;BMP280;54354;44.724;11.284;2024-01-30T07:26:20;103687.16;;;8.01
67509;BMP280;54354;44.724;11.284;2024-01-30T07:28:46;103673.66;;;8.02
67509;BMP280;54354;44.724;11.284;2024-01-30T07:31:12;103679.06;;;8.06
67509;BMP280;54354;44.724;11.284;2024-01-30T07:33:37;103683.44;;;8.10
67509;BMP280;54354;44.724;11.284;2024-01-30T07:36:03;103685.94;;;8.16
67509;BMP280;54354;44.724;11.284;2024-01-30T07:38:31;103686.25;;;8.14
67509;BMP280;54354;44.724;11.284;2024-01-30T07:40:57;103683.72;;;8.18
67509;BMP280;54354;44.724;11.284;2024-01-30T07:43:23;103682.22;;;8.25
67509;BMP280;54354;44.724;11.284;2024-01-30T07:45:48;103691.97;;;8.33
67509;BMP280;54354;44.724;11.284;2024-01-30T07:48:14;103685.41;;;8.40
67509;BMP280;54354;44.724;11.284;2024-01-30T07:50:39;103690.56;;;8.45
67509;BMP280;54354;44.724;11.284;2024-01-30T07:53:05;103688.84;;;8.49
67509;BMP280;54354;44.724;11.284;2024-01-30T07:55:31;103688.53;;;8.50
67509;BMP280;54354;44.724;11.284;2024-01-30T07:57:58;103691.16;;;8.50
67509;BMP280;54354;44.724;11.284;2024-01-30T08:00:24;103699.25;;;8.54
67509;BMP280;54354;44.724;11.284;2024-01-30T08:02:50;103685.53;;;8.60
67509;BMP280;54354;44.724;11.284;2024-01-30T08:05:15;103686.97;;;8.67
67509;BMP280;54354;44.724;11.284;2024-01-30T08:07:41;103687.72;;;8.67
67509;BMP280;54354;44.724;11.284;2024-01-30T08:10:08;103692.38;;;8.70
67509;BMP280;54354;44.724;11.284;2024-01-30T08:12:33;103698.91;;;8.73
67509;BMP280;54354;44.724;11.284;2024-01-30T08:14:59;103701.06;;;8.71
67509;BMP280;54354;44.724;11.284;2024-01-30T08:17:25;103698.94;;;8.64
67509;BMP280;54354;44.724;11.284;2024-01-30T08:19:50;103709.94;;;8.66
67509;BMP280;54354;44.724;11.284;2024-01-30T08:22:16;103699.06;;;8.68
67509;BMP280;54354;44.724;11.284;2024-01-30T08:24:41;103695.47;;;8.72
67509;BMP280;54354;44.724;11.284;2024-01-30T08:27:07;103686.63;;;8.77
67509;BMP280;54354;44.724;11.284;2024-01-30T08:29:35;103697.63;;;8.79
67509;BMP280;54354;44.724;11.284;2024-01-30T08:32:01;103701.19;;;8.83
67509;BMP280;54354;44.724;11.284;2024-01-30T08:34:27;103696.50;;;8.88
67509;BMP280;54354;44.724;11.284;2024-01-30T08:36:53;103706.31;;;8.97
67509;BMP280;54354;44.724;11.284;2024-01-30T08:39:18;103704.53;;;9.01
67509;BMP280;54354;44.724;11.284;2024-01-30T08:41:44;103706.41;;;9.00
67509;BMP280;54354;44.724;11.284;2024-01-30T08:44:10;103693.81;;;9.06
67509;BMP280;54354;44.724;11.284;2024-01-30T08:46:36;103703.75;;;9.09
67509;BMP280;54354;44.724;11.284;2024-01-30T08:49:02;103700.47;;;9.12
67509;BMP280;54354;44.724;11.284;2024-01-30T08:51:29;103700.66;;;9.07
67509;BMP280;54354;44.724;11.284;2024-01-30T08:53:55;103701.91;;;9.01
67509;BMP280;54354;44.724;11.284;2024-01-30T08:56:20;103693.50;;;8.99
67509;BMP280;54354;44.724;11.284;2024-01-30T08:58:46;103704.22;;;9.02
67509;BMP280;54354;44.724;11.284;2024-01-30T09:01:11;103689.75;;;9.08
67509;BMP280;54354;44.724;11.284;2024-01-30T09:03:37;103695.94;;;9.12
67509;BMP280;54354;44.724;11.284;2024-01-30T09:06:08;103692.97;;;9.14
67509;BMP280;54354;44.724;11.284;2024-01-30T09:08:34;103704.81;;;9.17
67509;BMP280;54354;44.724;11.284;2024-01-30T09:10:59;103706.34;;;9.18
67509;BMP280;54354;44.724;11.284;2024-01-30T09:13:25;103712.81;;;9.29
67509;BMP280;54354;44.724;11.284;2024-01-30T09:15:51;103705.59;;;9.38
67509;BMP280;54354;44.724;11.284;2024-01-30T09:18:16;103710.44;;;9.45
67509;BMP280;54354;44.724;11.284;2024-01-30T09:20:42;103703.22;;;9.54
67509;BMP280;54354;44.724;11.284;2024-01-30T09:23:07;103709.97;;;9.63
67509;BMP280;54354;44.724;11.284;2024-01-30T09:25:33;103711.34;;;9.70
67509;BMP280;54354;44.724;11.284;2024-01-30T09:27:59;103712.38;;;9.77
67509;BMP280;54354;44.724;11.284;2024-01-30T09:30:25;103712.00;;;9.87
67509;BMP280;54354;44.724;11.284;2024-01-30T09:32:50;103718.53;;;9.90
67509;BMP280;54354;44.724;11.284;2024-01-30T09:35:16;103719.94;;;9.87
67509;BMP280;54354;44.724;11.284;2024-01-30T09:37:42;103711.53;;;9.85
67509;BMP280;54354;44.724;11.284;2024-01-30T09:40:07;103714.75;;;9.91
67509;BMP280;54354;44.724;11.284;2024-01-30T09:42:34;103712.09;;;9.91
67509;BMP280;54354;44.724;11.284;2024-01-30T09:45:04;103719.09;;;9.96
67509;BMP280;54354;44.724;11.284;2024-01-30T09:47:40;103709.81;;;9.90
67509;BMP280;54354;44.724;11.284;2024-01-30T09:50:07;103713.34;;;9.94
67509;BMP280;54354;44.724;11.284;2024-01-30T09:52:33;103710.66;;;9.81
67509;BMP280;54354;44.724;11.284;2024-01-30T09:55:02;103707.41;;;9.76
67509;BMP280;54354;44.724;11.284;2024-01-30T09:57:28;103715.03;;;9.77
67509;BMP280;54354;44.724;11.284;2024-01-30T09:59:54;103708.50;;;9.75
67509;BMP280;54354;44.724;11.284;2024-01-30T10:02:20;103709.41;;;9.79
67509;BMP280;54354;44.724;11.284;2024-01-30T10:04:49;103700.50;;;9.83
67509;BMP280;54354;44.724;11.284;2024-01-30T10:07:19;103708.94;;;9.98
67509;BMP280;54354;44.724;11.284;2024-01-30T10:09:45;103710.44;;;10.07
67509;BMP280;54354;44.724;11.284;2024-01-30T10:12:11;103705.38;;;10.14
67509;BMP280;54354;44.724;11.284;2024-01-30T10:14:40;103690.59;;;10.13
67509;BMP280;54354;44.724;11.284;2024-01-30T10:17:09;103696.00;;;10.17
67509;BMP280;54354;44.724;11.284;2024-01-30T10:19:36;103701.44;;;10.21
67509;BMP280;54354;44.724;11.284;2024-01-30T10:22:03;103702.66;;;10.23
67509;BMP280;54354;44.724;11.284;2024-01-30T10:24:29;103700.78;;;10.24
67509;BMP280;54354;44.724;11.284;2024-01-30T10:26:57;103704.84;;;10.21
67509;BMP280;54354;44.724;11.284;2024-01-30T10:29:24;103688.94;;;10.21
67509;BMP280;54354;44.724;11.284;2024-01-30T10:32:03;103689.19;;;10.16
67509;BMP280;54354;44.724;11.284;2024-01-30T10:34:29;103695.41;;;10.32
67509;BMP280;54354;44.724;11.284;2024-01-30T10:37:15;103684.91;;;10.36
67509;BMP280;54354;44.724;11.284;2024-01-30T10:39:43;103682.38;;;10.39
67509;BMP280;54354;44.724;11.284;2024-01-30T10:42:18;103678.28;;;10.30
67509;BMP280;54354;44.724;11.284;2024-01-30T10:44:52;103676.59;;;10.25
67509;BMP280;54354;44.724;11.284;2024-01-30T10:47:26;103681.69;;;10.30
67509;BMP280;54354;44.724;11.284;2024-01-30T10:49:54;103670.66;;;10.28
67509;BMP280;54354;44.724;11.284;2024-01-30T10:52:20;103666.34;;;10.24
67509;BMP280;54354;44.724;11.284;2024-01-30T10:54:46;103666.78;;;10.26
67509;BMP280;54354;44.724;11.284;2024-01-30T10:57:13;103662.06;;;10.31
67509;BMP280;54354;44.724;11.284;2024-01-30T10:59:41;103654.59;;;10.46
67509;BMP280;54354;44.724;11.284;2024-01-30T11:02:08;103659.13;;;10.57
67509;BMP280;54354;44.724;11.284;2024-01-30T11:04:40;103651.03;;;10.54
67509;BMP280;54354;44.724;11.284;2024-01-30T11:07:19;103654.91;;;10.56
67509;BMP280;54354;44.724;11.284;2024-01-30T11:10:12;103644.75;;;10.71
67509;BMP280;54354;44.724;11.284;2024-01-30T11:12:40;103645.75;;;10.66
67509;BMP280;54354;44.724;11.284;2024-01-30T11:15:15;103635.47;;;10.52
67509;BMP280;54354;44.724;11.284;2024-01-30T11:20:20;103631.25;;;10.51
67509;BMP280;54354;44.724;11.284;2024-01-30T11:22:47;103633.16;;;10.63
67509;BMP280;54354;44.724;11.284;2024-01-30T11:25:17;103634.47;;;10.69
67509;BMP280;54354;44.724;11.284;2024-01-30T11:27:43;103617.38;;;10.79
67509;BMP280;54354;44.724;11.284;2024-01-30T11:30:10;103624.09;;;10.76
67509;BMP280;54354;44.724;11.284;2024-01-30T11:32:36;103617.91;;;10.72
67509;BMP280;54354;44.724;11.284;2024-01-30T11:35:05;103616.94;;;10.64
67509;BMP280;54354;44.724;11.284;2024-01-30T11:37:37;103614.84;;;10.58
67509;BMP280;54354;44.724;11.284;2024-01-30T11:40:04;103614.16;;;10.61
67509;BMP280;54354;44.724;11.284;2024-01-30T11:42:29;103616.81;;;10.61
67509;BMP280;54354;44.724;11.284;2024-01-30T11:44:56;103613.28;;;10.69
67509;BMP280;54354;44.724;11.284;2024-01-30T11:47:23;103618.47;;;10.78
67509;BMP280;54354;44.724;11.284;2024-01-30T11:49:48;103607.44;;;10.88
67509;BMP280;54354;44.724;11.284;2024-01-30T11:52:14;103599.34;;;10.97
67509;BMP280;54354;44.724;11.284;2024-01-30T11:54:40;103600.97;;;11.01
67509;BMP280;54354;44.724;11.284;2024-01-30T11:57:06;103586.59;;;11.02
67509;BMP280;54354;44.724;11.284;2024-01-30T11:59:31;103592.06;;;11.06
67509;BMP280;54354;44.724;11.284;2024-01-30T12:01:57;103591.47;;;11.12
67509;BMP280;54354;44.724;11.284;2024-01-30T12:04:22;103586.94;;;11.13
67509;BMP280;54354;44.724;11.284;2024-01-30T12:06:52;103576.44;;;11.04
67509;BMP280;54354;44.724;11.284;2024-01-30T12:09:18;103585.75;;;10.98
67509;BMP280;54354;44.724;11.284;2024-01-30T12:11:47;103564.09;;;10.84
67509;BMP280;54354;44.724;11.284;2024-01-30T12:14:13;103574.19;;;10.90
67509;BMP280;54354;44.724;11.284;2024-01-30T12:22:52;103564.69;;;11.18
67509;BMP280;54354;44.724;11.284;2024-01-30T12:25:20;103572.84;;;11.25
67509;BMP280;54354;44.724;11.284;2024-01-30T12:27:48;103565.66;;;11.25
67509;BMP280;54354;44.724;11.284;2024-01-30T12:30:16;103563.44;;;11.27
67509;BMP280;54354;44.724;11.284;2024-01-30T12:32:46;103550.31;;;11.19
67509;BMP280;54354;44.724;11.284;2024-01-30T12:35:19;103557.06;;;11.16
67509;BMP280;54354;44.724;11.284;2024-01-30T12:37:46;103554.72;;;11.27
67509;BMP280;54354;44.724;11.284;2024-01-30T12:40:14;103553.59;;;11.28
67509;BMP280;54354;44.724;11.284;2024-01-30T12:42:40;103557.38;;;11.27
67509;BMP280;54354;44.724;11.284;2024-01-30T12:45:08;103551.00;;;11.15
67509;BMP280;54354;44.724;11.284;2024-01-30T12:47:34;103555.19;;;11.16
67509;BMP280;54354;44.724;11.284;2024-01-30T12:49:59;103547.22;;;11.16
67509;BMP280;54354;44.724;11.284;2024-01-30T12:52:25;103546.13;;;11.18
67509;BMP280;54354;44.724;11.284;2024-01-30T12:54:51;103543.97;;;11.23
67509;BMP280;54354;44.724;11.284;2024-01-30T12:57:17;103542.50;;;11.38
67509;BMP280;54354;44.724;11.284;2024-01-30T12:59:44;103538.91;;;11.46
67509;BMP280;54354;44.724;11.284;2024-01-30T13:02:10;103531.19;;;11.41
67509;BMP280;54354;44.724;11.284;2024-01-30T13:04:36;103524.28;;;11.36
67509;BMP280;54354;44.724;11.284;2024-01-30T13:07:02;103531.91;;;11.38
67509;BMP280;54354;44.724;11.284;2024-01-30T13:09:29;103510.31;;;11.39
67509;BMP280;54354;44.724;11.284;2024-01-30T13:11:55;103528.06;;;11.51
67509;BMP280;54354;44.724;11.284;2024-01-30T13:14:20;103522.78;;;11.51
67509;BMP280;54354;44.724;11.284;2024-01-30T13:16:46;103525.88;;;11.53
67509;BMP280;54354;44.724;11.284;2024-01-30T13:19:12;103518.22;;;11.52
67509;BMP280;54354;44.724;11.284;2024-01-30T13:21:37;103519.06;;;11.56
67509;BMP280;54354;44.724;11.284;2024-01-30T13:24:04;103510.84;;;11.61
67509;BMP280;54354;44.724;11.284;2024-01-30T13:26:32;103506.09;;;11.66
67509;BMP280;54354;44.724;11.284;2024-01-30T13:28:57;103509.25;;;11.72
67509;BMP280;54354;44.724;11.284;2024-01-30T13:31:23;103507.19;;;11.65
67509;BMP280;54354;44.724;11.284;2024-01-30T13:33:49;103500.00;;;11.50
67509;BMP280;54354;44.724;11.284;2024-01-30T13:36:14;103510.09;;;11.45
67509;BMP280;54354;44.724;11.284;2024-01-30T13:38:40;103504.94;;;11.36
67509;BMP280;54354;44.724;11.284;2024-01-30T13:41:06;103493.81;;;11.30
67509;BMP280;54354;44.724;11.284;2024-01-30T13:43:32;103500.41;;;11.36
67509;BMP280;54354;44.724;11.284;2024-01-30T13:45:57;103499.03;;;11.42
67509;BMP280;54354;44.724;11.284;2024-01-30T13:48:23;103498.34;;;11.46
67509;BMP280;54354;44.724;11.284;2024-01-30T13:50:49;103499.31;;;11.53
67509;BMP280;54354;44.724;11.284;2024-01-30T13:53:14;103500.25;;;11.45
67509;BMP280;54354;44.724;11.284;2024-01-30T13:55:40;103489.44;;;11.38
67509;BMP280;54354;44.724;11.284;2024-01-30T13:58:06;103487.31;;;11.43